Webcam & Weather

This webcam image will automatically refresh every 15 seconds.


METAR and TAF for EGLL Heathrow (12 Nautical Miles East of White Waltham)

METAR FOR EGLL (Issued: Tue, February 21st 2017 5:20 AM UTC):
EGLL 210520Z 24009KT 2300 -RADZ FEW005 SCT008 BKN011 10/10 Q1017 TEMPO BKN008

TAF FOR EGLL (Issued: Tue, February 21st 2017 6:18 AM UTC):
TAF EGLL 210457Z 2106/2212 26010KT 9999 BKN016 TEMPO 2106/2112 7000 -RADZ BKN012 PROB40 TEMPO 2106/2108 3000 RADZ BKN007 TEMPO 2112/2120 25016G26KT BECMG 2120/2123 24018G28KT BKN012

Play 24 hour timelapse | Play 30 day timelapse

Comments are closed.